createdAt,value
2019-05-15T00:01:43.745Z,4.50
2019-05-15T00:06:49.100Z,4.87
2019-05-15T00:11:54.092Z,4.93
2019-05-15T00:16:59.044Z,4.50
2019-05-15T00:22:04.290Z,4.60
2019-05-15T00:27:09.588Z,4.60
2019-05-15T00:32:14.614Z,4.23
2019-05-15T00:37:19.911Z,4.50
2019-05-15T00:42:25.044Z,4.43
2019-05-15T00:47:29.851Z,4.43
2019-05-15T00:52:35.095Z,4.90
2019-05-15T00:57:40.325Z,4.17
2019-05-15T01:02:46.168Z,4.47
2019-05-15T01:07:52.085Z,4.60
2019-05-15T01:12:58.416Z,4.47
2019-05-15T01:18:03.655Z,4.70
2019-05-15T01:23:08.994Z,4.67
2019-05-15T01:28:14.523Z,4.77
2019-05-15T01:33:19.308Z,4.67
2019-05-15T01:38:24.603Z,4.93
2019-05-15T01:43:32.008Z,4.73
2019-05-15T01:48:38.887Z,4.97
2019-05-15T01:53:43.871Z,4.50
2019-05-15T01:58:50.024Z,4.93
2019-05-15T02:03:55.184Z,5.13
2019-05-15T02:09:00.547Z,5.30
2019-05-15T02:14:08.304Z,5.40
2019-05-15T02:19:13.576Z,4.97
2019-05-15T02:24:19.063Z,5.00
2019-05-15T02:29:25.086Z,5.07
2019-05-15T02:34:30.583Z,5.57
2019-05-15T02:39:38.596Z,5.40
2019-05-15T02:44:42.756Z,5.53
2019-05-15T02:49:48.779Z,5.37
2019-05-15T02:54:53.990Z,5.87
2019-05-15T02:59:59.431Z,5.37
2019-05-15T03:05:04.530Z,5.73
2019-05-15T03:10:10.398Z,5.57
2019-05-15T03:15:19.299Z,5.20
2019-05-15T03:20:23.528Z,5.47
2019-05-15T03:25:29.767Z,5.40
2019-05-15T03:31:02.653Z,5.07
2019-05-15T03:35:44.094Z,5.10
2019-05-15T03:40:49.844Z,5.83
2019-05-15T03:45:55.257Z,5.13
2019-05-15T03:51:00.729Z,5.20
2019-05-15T03:56:05.879Z,5.30
2019-05-15T04:01:28.583Z,5.33
2019-05-15T04:06:19.369Z,5.83
2019-05-15T04:11:29.149Z,5.87
2019-05-15T04:16:33.568Z,5.50
2019-05-15T04:21:44.701Z,5.13
2019-05-15T04:26:49.804Z,5.50
2019-05-15T04:32:01.103Z,5.27
2019-05-15T04:37:01.831Z,5.30
2019-05-15T04:42:08.224Z,5.57
2019-05-15T04:47:13.735Z,5.33
2019-05-15T04:52:19.560Z,4.87
2019-05-15T04:57:30.353Z,6.53
2019-05-15T05:02:33.837Z,5.00
2019-05-15T05:07:39.263Z,4.63
2019-05-15T05:12:44.782Z,4.67
2019-05-15T05:17:49.907Z,4.70
2019-05-15T05:22:54.936Z,4.60
2019-05-15T05:27:59.859Z,4.97
2019-05-15T05:33:08.524Z,4.53
2019-05-15T05:38:14.270Z,4.77
2019-05-15T05:43:19.330Z,3.97
2019-05-15T05:48:24.611Z,4.57
2019-05-15T05:53:29.455Z,4.70
2019-05-15T05:58:34.318Z,4.53
2019-05-15T06:03:39.523Z,4.30
2019-05-15T06:08:44.788Z,4.00
2019-05-15T06:13:52.442Z,3.70
2019-05-15T06:18:58.459Z,4.13
2019-05-15T06:24:05.195Z,3.93
2019-05-15T06:29:09.449Z,4.00
2019-05-15T06:34:14.985Z,3.77
2019-05-15T06:39:19.759Z,3.53
2019-05-15T06:44:24.946Z,4.37
2019-05-15T06:49:30.009Z,4.03
2019-05-15T06:54:35.200Z,4.50
2019-05-15T06:59:40.076Z,4.13
2019-05-15T07:04:44.955Z,4.50
2019-05-15T07:09:49.883Z,4.20
2019-05-15T07:14:54.965Z,3.50
2019-05-15T07:20:00.051Z,3.87
2019-05-15T07:25:05.418Z,3.52
2019-05-15T07:30:12.224Z,3.90
2019-05-15T07:35:19.136Z,3.70
2019-05-15T07:40:28.797Z,3.12
2019-05-15T07:45:32.451Z,3.87
2019-05-15T07:50:38.712Z,3.20
2019-05-15T07:55:43.850Z,3.00
2019-05-15T08:00:49.468Z,3.20
2019-05-15T08:05:59.346Z,2.90
2019-05-15T08:11:16.356Z,2.40
2019-05-15T08:16:08.688Z,2.40
2019-05-15T08:21:14.019Z,2.62
2019-05-15T08:26:19.911Z,2.60
2019-05-15T08:31:25.425Z,2.35
2019-05-15T08:36:31.342Z,2.10
2019-05-15T08:41:38.855Z,2.15
2019-05-15T08:46:44.407Z,2.33
2019-05-15T08:51:50.111Z,2.30
2019-05-15T08:56:55.228Z,2.15
2019-05-15T09:02:00.000Z,2.40
2019-05-15T09:07:05.236Z,2.00
2019-05-15T09:12:10.487Z,2.00
2019-05-15T09:17:17.994Z,2.20
2019-05-15T09:22:22.331Z,2.20
2019-05-15T09:27:27.904Z,2.12
2019-05-15T09:32:32.812Z,2.20
2019-05-15T09:37:38.655Z,1.92
2019-05-15T09:42:43.871Z,2.35
2019-05-15T09:47:48.802Z,2.22
2019-05-15T09:52:53.678Z,2.30
2019-05-15T09:57:59.184Z,2.37
2019-05-15T10:03:04.192Z,2.47
2019-05-15T10:08:09.179Z,2.30
2019-05-15T10:13:14.080Z,2.45
2019-05-15T10:18:19.550Z,2.65
2019-05-15T10:23:24.803Z,2.60
2019-05-15T10:28:30.004Z,2.10
2019-05-15T10:33:35.137Z,2.65
2019-05-15T10:38:40.058Z,2.27
2019-05-15T10:43:47.303Z,2.52
2019-05-15T10:48:51.757Z,2.02
2019-05-15T10:53:56.995Z,2.15
2019-05-15T10:59:02.041Z,2.50
2019-05-15T11:04:09.281Z,2.70
2019-05-15T11:09:13.629Z,2.70
2019-05-15T11:14:18.793Z,2.10
2019-05-15T11:19:25.072Z,2.45
2019-05-15T11:24:32.446Z,2.50
2019-05-15T11:29:38.186Z,2.40
2019-05-15T11:34:43.313Z,2.65
2019-05-15T11:39:49.050Z,2.75
2019-05-15T11:44:53.925Z,2.70
2019-05-15T11:49:58.724Z,3.33
2019-05-15T11:55:03.766Z,2.70
2019-05-15T12:00:17.361Z,2.67
2019-05-15T12:05:18.285Z,2.45
2019-05-15T12:10:23.680Z,2.80
2019-05-15T12:15:28.530Z,2.50
2019-05-15T12:20:33.426Z,2.60
2019-05-15T12:25:39.806Z,3.10
2019-05-15T12:30:44.869Z,2.70
2019-05-15T12:35:50.984Z,2.65
2019-05-15T13:01:22.767Z,2.20
2019-05-15T13:06:28.672Z,1.92
2019-05-15T13:11:33.637Z,2.30
2019-05-15T13:16:39.103Z,1.90
2019-05-15T13:21:44.017Z,1.90
2019-05-15T13:26:49.655Z,2.20
2019-05-15T13:31:55.599Z,2.47
2019-05-15T13:37:00.741Z,2.75
2019-05-15T13:42:05.693Z,3.00
2019-05-15T13:47:11.234Z,4.20
2019-05-15T13:52:18.635Z,4.78
2019-05-15T13:57:23.385Z,4.37
2019-05-15T14:02:28.667Z,4.42
2019-05-15T14:07:46.052Z,5.45
2019-05-15T14:12:40.875Z,5.20
2019-05-15T14:17:48.655Z,4.97
2019-05-15T14:22:53.871Z,5.08
2019-05-15T14:27:59.600Z,4.60
2019-05-15T14:33:04.663Z,8.40
2019-05-15T14:38:10.649Z,4.45
2019-05-15T14:43:18.431Z,4.10
2019-05-15T14:48:23.269Z,4.03
2019-05-15T14:53:29.360Z,3.77
2019-05-15T14:58:35.243Z,4.05
2019-05-15T15:03:40.365Z,3.33
2019-05-15T15:08:45.220Z,2.77
2019-05-15T15:13:50.751Z,2.83
2019-05-15T15:18:58.407Z,3.02
2019-05-15T15:24:02.772Z,3.00
2019-05-15T15:29:08.459Z,3.08
2019-05-15T15:34:15.273Z,3.30
2019-05-15T15:39:20.272Z,2.95
2019-05-15T15:44:25.137Z,4.72
2019-05-15T15:49:29.932Z,3.25
2019-05-15T15:54:35.144Z,3.30
2019-05-15T15:59:40.698Z,14.73
2019-05-15T16:04:45.486Z,19.15
2019-05-15T16:09:51.885Z,3.30
2019-05-15T16:14:57.929Z,2.67
2019-05-15T16:20:03.268Z,2.58
2019-05-15T16:25:09.933Z,3.40
2019-05-15T16:30:15.823Z,3.20
2019-05-15T16:35:20.757Z,3.35
2019-05-15T16:40:28.799Z,3.42
2019-05-15T16:45:34.386Z,3.30
2019-05-15T16:50:39.747Z,3.27
2019-05-15T16:55:45.083Z,3.02
2019-05-15T17:00:53.253Z,3.40
2019-05-15T17:06:02.314Z,3.30
2019-05-15T17:11:08.080Z,3.15
2019-05-15T17:16:14.236Z,3.60
2019-05-15T17:21:19.198Z,3.37
2019-05-15T17:26:24.396Z,3.40
2019-05-15T17:31:29.622Z,3.35
2019-05-15T17:36:34.805Z,3.20
2019-05-15T17:41:41.711Z,3.20
2019-05-15T17:46:48.984Z,2.92
2019-05-15T17:51:54.286Z,3.42
2019-05-15T17:56:59.639Z,3.50
2019-05-15T18:02:04.995Z,3.25
2019-05-15T18:07:10.764Z,3.65
2019-05-15T18:12:15.858Z,3.47
2019-05-15T18:17:20.788Z,3.65
2019-05-15T18:22:25.736Z,3.20
2019-05-15T18:27:30.948Z,3.37
2019-05-15T18:32:35.852Z,3.52
2019-05-15T18:37:40.838Z,3.75
2019-05-15T18:42:49.366Z,3.35
2019-05-15T18:47:53.186Z,3.37
2019-05-15T18:53:00.111Z,3.05
2019-05-15T18:58:08.697Z,3.33
2019-05-15T19:03:19.651Z,3.27
2019-05-15T19:08:20.422Z,3.35
2019-05-15T19:13:28.398Z,3.10
2019-05-15T19:18:33.830Z,3.67
2019-05-15T19:23:40.457Z,3.70
2019-05-15T19:28:48.393Z,3.50
2019-05-15T19:33:53.373Z,4.15
2019-05-15T19:38:59.748Z,4.53
2019-05-15T19:44:08.789Z,4.13
2019-05-15T19:49:17.914Z,4.70
2019-05-15T19:54:23.480Z,4.30
2019-05-15T19:59:29.519Z,4.20
2019-05-15T20:04:38.567Z,3.65
2019-05-15T20:09:44.810Z,3.85
2019-05-15T20:14:49.685Z,3.60
2019-05-15T20:19:54.996Z,3.62
2019-05-15T20:25:01.858Z,3.12
2019-05-15T20:30:08.685Z,2.90
2019-05-15T20:35:14.143Z,3.17
2019-05-15T20:40:21.745Z,2.55
2019-05-15T20:45:29.054Z,2.50
2019-05-15T20:50:33.700Z,2.30
2019-05-15T20:55:38.592Z,2.35
2019-05-15T21:00:43.888Z,2.60
2019-05-15T21:05:49.574Z,2.67
2019-05-15T21:10:55.140Z,2.60
2019-05-15T21:16:00.359Z,2.53
2019-05-15T21:21:10.184Z,2.70
2019-05-15T21:26:12.679Z,2.33
2019-05-15T21:31:21.927Z,2.87
2019-05-15T21:36:24.528Z,2.70
2019-05-15T21:41:29.804Z,2.67
2019-05-15T21:46:35.439Z,3.03
2019-05-15T21:51:41.188Z,2.77
2019-05-15T21:56:47.517Z,2.87
2019-05-15T22:01:53.738Z,2.60
2019-05-15T22:06:59.079Z,2.93
2019-05-15T22:12:04.863Z,2.93
2019-05-15T22:17:12.790Z,3.00
2019-05-15T22:22:18.075Z,3.43
2019-05-15T22:27:23.344Z,3.00
2019-05-15T22:32:29.211Z,3.10
2019-05-15T22:37:34.643Z,3.13
2019-05-15T22:42:39.610Z,3.30
2019-05-15T22:47:45.254Z,3.10
2019-05-15T22:52:50.104Z,3.27
2019-05-15T22:57:54.959Z,3.57
2019-05-15T23:02:59.787Z,3.60
2019-05-15T23:08:04.749Z,3.77
2019-05-15T23:13:09.707Z,3.50
2019-05-15T23:18:14.891Z,3.70
2019-05-15T23:23:19.980Z,3.73
2019-05-15T23:28:24.959Z,3.97
2019-05-15T23:33:29.802Z,4.03
2019-05-15T23:38:34.803Z,3.80
2019-05-15T23:43:39.703Z,4.20
2019-05-15T23:48:44.690Z,4.13
2019-05-15T23:53:49.853Z,4.20
2019-05-15T23:58:55.572Z,4.17
